createdAt,value
2019-02-26T00:00:12.811Z,79.50
2019-02-26T00:02:41.560Z,79.50
2019-02-26T00:05:07.862Z,79.40
2019-02-26T00:07:34.262Z,79.50
2019-02-26T00:10:02.602Z,79.80
2019-02-26T00:12:30.923Z,80.50
2019-02-26T00:14:57.506Z,79.80
2019-02-26T00:17:25.042Z,79.80
2019-02-26T00:19:51.453Z,79.60
2019-02-26T00:22:18.291Z,79.60
2019-02-26T00:24:46.580Z,79.60
2019-02-26T00:27:13.220Z,79.60
2019-02-26T00:29:40.118Z,79.60
2019-02-26T00:32:07.105Z,79.60
2019-02-26T00:34:36.769Z,80.30
2019-02-26T00:37:04.074Z,79.60
2019-02-26T00:39:31.567Z,79.50
2019-02-26T00:41:58.732Z,79.40
2019-02-26T00:44:27.445Z,79.50
2019-02-26T00:46:57.177Z,79.50
2019-02-26T00:49:23.710Z,79.50
2019-02-26T00:51:52.806Z,79.40
2019-02-26T00:54:22.154Z,79.40
2019-02-26T00:56:47.478Z,79.40
2019-02-26T00:59:13.822Z,79.40
2019-02-26T01:01:44.017Z,79.20
2019-02-26T01:04:08.247Z,79.10
2019-02-26T01:06:34.573Z,79.00
2019-02-26T01:09:03.224Z,78.90
2019-02-26T01:11:30.231Z,78.80
2019-02-26T01:13:57.411Z,78.80
2019-02-26T01:16:25.238Z,78.60
2019-02-26T01:18:53.193Z,78.40
2019-02-26T01:21:22.125Z,78.40
2019-02-26T01:23:48.201Z,78.40
2019-02-26T01:26:14.769Z,78.40
2019-02-26T01:28:46.156Z,78.30
2019-02-26T01:31:11.427Z,78.30
2019-02-26T01:33:37.751Z,79.20
2019-02-26T01:36:04.044Z,78.20
2019-02-26T01:38:30.351Z,78.30
2019-02-26T01:40:56.861Z,78.30
2019-02-26T01:43:23.178Z,78.30
2019-02-26T01:45:50.816Z,78.20
2019-02-26T01:48:18.625Z,78.20
2019-02-26T01:50:45.422Z,78.20
2019-02-26T01:53:12.100Z,78.30
2019-02-26T01:55:42.118Z,78.90
2019-02-26T01:58:08.155Z,78.90
2019-02-26T02:00:34.488Z,78.20
2019-02-26T02:03:00.808Z,78.20
2019-02-26T02:05:29.472Z,78.20
2019-02-26T02:07:56.106Z,78.20
2019-02-26T02:10:22.514Z,78.30
2019-02-26T02:12:48.828Z,78.30
2019-02-26T02:15:18.107Z,78.30
2019-02-26T02:17:43.946Z,78.30
2019-02-26T02:20:13.072Z,78.40
2019-02-26T02:22:42.184Z,78.50
2019-02-26T02:25:10.122Z,78.40
2019-02-26T02:27:36.412Z,78.40
2019-02-26T02:30:06.414Z,78.40
2019-02-26T02:32:34.505Z,78.40
2019-02-26T02:35:04.332Z,78.40
2019-02-26T02:37:31.851Z,78.50
2019-02-26T02:39:57.868Z,78.60
2019-02-26T02:42:24.383Z,78.40
2019-02-26T02:44:52.782Z,78.40
2019-02-26T02:47:19.213Z,78.40
2019-02-26T02:49:45.657Z,78.30
2019-02-26T02:52:12.179Z,78.30
2019-02-26T02:54:39.273Z,78.20
2019-02-26T02:57:08.009Z,78.30
2019-02-26T02:59:36.738Z,78.10
2019-02-26T03:02:03.017Z,78.20
2019-02-26T03:04:31.695Z,78.00
2019-02-26T03:06:58.641Z,77.90
2019-02-26T03:09:25.655Z,77.90
2019-02-26T03:11:53.025Z,77.90
2019-02-26T03:14:20.541Z,77.80
2019-02-26T03:16:47.825Z,77.80
2019-02-26T03:19:17.020Z,77.80
2019-02-26T03:21:45.379Z,77.90
2019-02-26T03:24:11.909Z,77.80
2019-02-26T03:26:38.229Z,77.70
2019-02-26T03:29:04.872Z,77.80
2019-02-26T03:31:34.916Z,77.70
2019-02-26T03:34:04.159Z,77.50
2019-02-26T03:36:27.601Z,77.60
2019-02-26T03:38:56.538Z,77.70
2019-02-26T03:41:23.625Z,77.60
2019-02-26T03:43:50.425Z,77.50
2019-02-26T03:46:16.926Z,77.50
2019-02-26T03:48:43.353Z,77.50
2019-02-26T03:51:09.860Z,77.30
2019-02-26T03:53:38.472Z,77.30
2019-02-26T03:56:08.194Z,77.20
2019-02-26T03:58:33.036Z,77.10
2019-02-26T04:01:04.482Z,77.10
2019-02-26T04:03:29.598Z,76.90
2019-02-26T04:05:59.940Z,76.90
2019-02-26T04:08:26.897Z,77.00
2019-02-26T04:10:55.406Z,76.80
2019-02-26T04:13:21.182Z,77.40
2019-02-26T04:15:47.769Z,77.00
2019-02-26T04:18:14.292Z,76.50
2019-02-26T04:20:43.574Z,76.50
2019-02-26T04:23:10.871Z,76.90
2019-02-26T04:25:51.471Z,76.90
2019-02-26T04:28:33.490Z,77.20
2019-02-26T04:31:06.703Z,77.40
2019-02-26T04:33:55.913Z,77.10
2019-02-26T04:36:34.438Z,77.40
2019-02-26T04:39:23.356Z,77.00
2019-02-26T04:42:17.384Z,76.50
2019-02-26T04:45:08.769Z,77.10
2019-02-26T04:47:40.957Z,77.10
2019-02-26T04:50:08.939Z,76.90
2019-02-26T04:52:37.766Z,76.90
2019-02-26T04:55:06.059Z,76.60
2019-02-26T04:57:32.512Z,76.70
2019-02-26T05:00:01.193Z,76.60
2019-02-26T05:02:27.274Z,76.60
2019-02-26T05:04:53.804Z,76.70
2019-02-26T05:07:20.218Z,76.60
2019-02-26T05:09:47.587Z,76.60
2019-02-26T05:12:14.836Z,76.50
2019-02-26T05:14:41.568Z,76.20
2019-02-26T05:17:07.950Z,76.20
2019-02-26T05:19:36.464Z,76.00
2019-02-26T05:22:05.086Z,76.00
2019-02-26T05:24:32.351Z,75.80
2019-02-26T05:26:58.904Z,75.70
2019-02-26T05:29:25.201Z,76.00
2019-02-26T05:31:51.618Z,75.80
2019-02-26T05:34:20.441Z,75.80
2019-02-26T05:36:46.454Z,75.50
2019-02-26T05:39:14.578Z,75.90
2019-02-26T05:41:41.176Z,75.70
2019-02-26T05:44:10.507Z,75.30
2019-02-26T05:46:35.894Z,75.50
2019-02-26T05:49:03.541Z,75.10
2019-02-26T05:51:32.779Z,74.90
2019-02-26T05:54:01.771Z,74.80
2019-02-26T05:56:26.981Z,74.70
2019-02-26T05:58:53.508Z,74.60
2019-02-26T06:01:21.875Z,74.40
2019-02-26T06:03:49.710Z,74.00
2019-02-26T06:06:16.381Z,74.20
2019-02-26T06:08:44.435Z,73.90
2019-02-26T06:11:10.735Z,73.90
2019-02-26T06:13:38.317Z,73.90
2019-02-26T06:16:07.514Z,73.90
2019-02-26T06:18:34.050Z,73.90
2019-02-26T06:21:01.218Z,73.80
2019-02-26T06:23:30.999Z,73.60
2019-02-26T06:25:58.955Z,73.50
2019-02-26T06:28:24.529Z,73.20
2019-02-26T06:30:50.943Z,73.10
2019-02-26T06:33:17.250Z,73.00
2019-02-26T06:35:43.784Z,73.00
2019-02-26T06:38:11.686Z,73.00
2019-02-26T06:40:39.347Z,73.00
2019-02-26T06:43:06.573Z,72.80
2019-02-26T06:45:32.841Z,72.90
2019-02-26T06:47:59.258Z,72.70
2019-02-26T06:50:25.886Z,72.60
2019-02-26T06:52:52.189Z,72.50
2019-02-26T06:55:20.029Z,72.50
2019-02-26T06:57:47.155Z,72.50
2019-02-26T07:00:19.685Z,72.20
2019-02-26T07:02:46.211Z,72.20
2019-02-26T07:05:13.626Z,72.20
2019-02-26T07:07:39.924Z,72.30
2019-02-26T07:10:18.423Z,72.30
2019-02-26T07:12:43.538Z,72.30
2019-02-26T07:15:14.277Z,72.30
2019-02-26T07:17:41.183Z,72.30
2019-02-26T07:20:09.094Z,72.20
2019-02-26T07:22:35.386Z,72.20
2019-02-26T07:25:02.321Z,72.20
2019-02-26T07:27:29.550Z,72.20
2019-02-26T07:29:56.747Z,72.30
2019-02-26T07:32:24.622Z,72.20
2019-02-26T07:34:52.118Z,72.30
2019-02-26T07:37:18.990Z,72.30
2019-02-26T07:39:47.182Z,72.30
2019-02-26T07:42:16.317Z,72.30
2019-02-26T07:44:41.882Z,72.40
2019-02-26T07:47:08.788Z,72.20
2019-02-26T07:49:36.529Z,72.20
2019-02-26T07:52:05.517Z,72.30
2019-02-26T07:54:31.137Z,72.30
2019-02-26T07:56:58.320Z,72.40
2019-02-26T07:59:27.845Z,72.30
2019-02-26T08:01:53.678Z,72.20
2019-02-26T08:04:20.582Z,72.40
2019-02-26T08:06:46.875Z,72.30
2019-02-26T08:09:14.660Z,72.20
2019-02-26T08:11:43.824Z,72.20
2019-02-26T08:14:10.393Z,72.30
2019-02-26T08:16:36.709Z,72.20
2019-02-26T08:19:03.098Z,72.40
2019-02-26T08:21:29.743Z,72.10
2019-02-26T08:23:56.305Z,72.00
2019-02-26T08:26:24.414Z,71.90
2019-02-26T08:28:50.968Z,71.80
2019-02-26T08:31:18.516Z,71.80
2019-02-26T08:33:48.934Z,71.90
2019-02-26T08:36:14.187Z,71.90
2019-02-26T08:38:40.646Z,71.90
2019-02-26T08:41:07.005Z,72.00
2019-02-26T08:43:33.521Z,72.00
2019-02-26T08:46:00.048Z,72.00
2019-02-26T08:48:27.031Z,72.00
2019-02-26T08:50:55.677Z,72.00
2019-02-26T08:53:23.821Z,72.10
2019-02-26T08:55:51.521Z,72.80
2019-02-26T08:58:18.220Z,72.00
2019-02-26T09:00:44.613Z,72.20
2019-02-26T09:03:13.241Z,72.10
2019-02-26T09:05:39.386Z,72.20
2019-02-26T09:08:06.446Z,72.20
2019-02-26T09:10:34.035Z,72.20
2019-02-26T09:13:00.340Z,72.40
2019-02-26T09:15:29.282Z,72.40
2019-02-26T09:17:56.186Z,72.40
2019-02-26T09:20:22.700Z,72.30
2019-02-26T09:22:53.021Z,72.50
2019-02-26T09:25:17.539Z,72.50
2019-02-26T09:27:44.095Z,73.00
2019-02-26T09:30:14.001Z,73.00
2019-02-26T09:32:44.143Z,73.10
2019-02-26T09:35:16.906Z,73.60
2019-02-26T09:37:45.343Z,74.20
2019-02-26T09:40:16.866Z,74.90
2019-02-26T09:42:43.897Z,75.00
2019-02-26T09:45:20.385Z,75.30
2019-02-26T09:47:47.878Z,75.10
2019-02-26T09:50:15.375Z,75.10
2019-02-26T09:52:42.792Z,74.80
2019-02-26T09:55:14.541Z,74.80
2019-02-26T09:57:40.865Z,74.40
2019-02-26T10:00:16.937Z,74.30
2019-02-26T10:02:45.314Z,74.50
2019-02-26T10:05:15.870Z,74.50
2019-02-26T10:07:42.229Z,75.10
2019-02-26T10:10:17.448Z,74.30
2019-02-26T10:12:43.742Z,74.20
2019-02-26T10:15:12.458Z,74.10
2019-02-26T10:17:40.812Z,73.90
2019-02-26T10:20:13.371Z,73.80
2019-02-26T10:22:40.425Z,74.20
2019-02-26T10:25:08.962Z,73.60
2019-02-26T10:27:38.306Z,73.70
2019-02-26T10:30:12.908Z,73.40
2019-02-26T10:32:46.963Z,73.00
2019-02-26T10:35:19.481Z,73.50
2019-02-26T10:37:51.737Z,74.70
2019-02-26T10:40:19.502Z,75.00
2019-02-26T10:42:46.249Z,74.70
2019-02-26T10:45:15.550Z,74.10
2019-02-26T10:47:41.957Z,75.00
2019-02-26T10:50:13.123Z,75.00
2019-02-26T10:52:40.042Z,75.10
2019-02-26T10:55:07.927Z,74.90
2019-02-26T10:57:43.568Z,74.80
2019-02-26T11:00:25.984Z,74.00
2019-02-26T11:02:54.118Z,73.10
2019-02-26T11:05:26.206Z,74.40
2019-02-26T11:07:49.385Z,73.10
2019-02-26T11:10:19.592Z,72.60
2019-02-26T11:12:45.786Z,72.40
2019-02-26T11:15:14.087Z,72.60
2019-02-26T11:17:40.479Z,72.40
2019-02-26T11:20:09.774Z,72.60
2019-02-26T11:22:36.192Z,72.60
2019-02-26T11:25:04.413Z,72.30
2019-02-26T11:27:30.850Z,71.90
2019-02-26T11:32:29.751Z,72.50
2019-02-26T11:34:57.504Z,75.10
2019-02-26T11:37:24.856Z,77.20
2019-02-26T11:39:52.691Z,77.80
2019-02-26T11:43:26.242Z,78.40
2019-02-26T11:45:52.141Z,78.40
2019-02-26T11:48:20.660Z,78.70
2019-02-26T11:50:46.754Z,79.40
2019-02-26T11:53:13.096Z,79.40
2019-02-26T11:55:39.519Z,79.50
2019-02-26T11:58:09.996Z,79.50
2019-02-26T12:00:42.233Z,79.60
2019-02-26T12:03:07.795Z,79.50
2019-02-26T12:05:36.019Z,79.30
2019-02-26T12:08:02.401Z,79.20
2019-02-26T12:10:31.831Z,79.20
2019-02-26T12:12:59.426Z,79.50
2019-02-26T12:15:27.077Z,79.30
2019-02-26T12:17:54.071Z,79.00
2019-02-26T12:20:22.409Z,79.00
2019-02-26T12:22:52.290Z,79.00
2019-02-26T12:25:18.350Z,78.90
2019-02-26T12:27:45.657Z,79.00
2019-02-26T12:30:23.823Z,79.30
2019-02-26T12:32:53.044Z,79.40
2019-02-26T12:35:19.355Z,79.50
2019-02-26T12:37:47.290Z,79.20
2019-02-26T12:40:16.059Z,79.10
2019-02-26T12:42:43.367Z,79.30
2019-02-26T12:45:19.773Z,79.60
2019-02-26T12:47:48.711Z,79.20
2019-02-26T12:50:19.913Z,79.30
2019-02-26T12:52:47.540Z,79.50
2019-02-26T12:55:14.794Z,79.50
2019-02-26T12:57:42.743Z,79.60
2019-02-26T13:00:20.047Z,79.30
2019-02-26T13:02:49.255Z,79.80
2019-02-26T13:05:18.963Z,79.60
2019-02-26T13:07:43.211Z,79.80
2019-02-26T13:10:20.823Z,66.30
2019-02-26T13:12:50.474Z,59.10
2019-02-26T13:15:19.327Z,58.50
2019-02-26T13:17:48.920Z,60.00
2019-02-26T13:20:17.171Z,60.60
2019-02-26T13:22:45.758Z,59.70
2019-02-26T13:25:16.998Z,59.70
2019-02-26T13:27:43.789Z,60.80
2019-02-26T13:30:12.501Z,60.90
2019-02-26T13:32:55.397Z,61.10
2019-02-26T13:35:09.336Z,61.30
2019-02-26T13:37:40.563Z,61.60
2019-02-26T13:40:12.821Z,62.70
2019-02-26T13:42:39.515Z,62.90
2019-02-26T13:45:09.517Z,63.50
2019-02-26T13:47:36.081Z,63.50
2019-02-26T13:50:08.229Z,63.20
2019-02-26T13:52:34.654Z,63.20
2019-02-26T13:55:01.071Z,63.70
2019-02-26T13:57:27.585Z,63.60
2019-02-26T13:59:54.213Z,63.30
2019-02-26T14:02:20.629Z,63.30
2019-02-26T14:04:47.479Z,63.20
2019-02-26T14:07:13.886Z,63.30
2019-02-26T14:09:40.294Z,63.20
2019-02-26T14:12:06.858Z,63.20
2019-02-26T14:14:34.933Z,63.80
2019-02-26T14:17:01.857Z,63.80
2019-02-26T14:19:28.149Z,64.00
2019-02-26T14:21:54.554Z,64.00
2019-02-26T14:24:21.090Z,64.30
2019-02-26T14:26:47.889Z,64.30
2019-02-26T14:29:14.415Z,64.70
2019-02-26T14:31:40.926Z,64.70
2019-02-26T14:34:07.348Z,64.70
2019-02-26T14:36:33.666Z,65.10
2019-02-26T14:39:00.178Z,65.10
2019-02-26T14:41:26.799Z,65.70
2019-02-26T14:43:53.208Z,65.80
2019-02-26T14:46:19.507Z,64.80
2019-02-26T14:48:45.952Z,64.90
2019-02-26T14:51:12.643Z,65.10
2019-02-26T14:53:38.994Z,65.30
2019-02-26T14:56:05.389Z,65.30
2019-02-26T14:58:31.818Z,65.30
2019-02-26T15:01:00.263Z,65.60
2019-02-26T15:03:26.458Z,66.50
2019-02-26T15:05:52.776Z,65.80
2019-02-26T15:08:19.326Z,65.90
2019-02-26T15:10:45.614Z,65.90
2019-02-26T15:13:12.076Z,66.00
2019-02-26T15:15:38.684Z,66.00
2019-02-26T15:18:05.016Z,66.10
2019-02-26T15:20:31.335Z,66.20
2019-02-26T15:22:57.737Z,66.20
2019-02-26T15:25:25.954Z,66.20
2019-02-26T15:27:52.255Z,66.40
2019-02-26T15:30:22.268Z,66.40
2019-02-26T15:32:48.697Z,66.50
2019-02-26T15:35:15.098Z,66.50
2019-02-26T15:37:41.819Z,66.60
2019-02-26T15:40:11.633Z,66.80
2019-02-26T15:42:38.086Z,66.70
2019-02-26T15:45:08.205Z,67.00
2019-02-26T15:47:34.626Z,67.20
2019-02-26T15:50:01.253Z,67.50
2019-02-26T15:52:27.665Z,67.60
2019-02-26T15:54:57.503Z,67.40
2019-02-26T15:57:22.401Z,67.40
2019-02-26T15:59:48.802Z,67.20
2019-02-26T16:02:15.315Z,67.80
2019-02-26T16:04:41.907Z,68.00
2019-02-26T16:07:08.305Z,68.10
2019-02-26T16:09:35.752Z,67.90
2019-02-26T16:12:02.224Z,67.90
2019-02-26T16:14:28.621Z,68.00
2019-02-26T16:16:55.208Z,68.10
2019-02-26T16:19:23.944Z,68.00
2019-02-26T16:21:50.510Z,68.00
2019-02-26T16:24:17.022Z,68.10
2019-02-26T16:26:43.322Z,68.10
2019-02-26T16:29:11.572Z,68.10
2019-02-26T16:31:37.866Z,68.90
2019-02-26T16:34:04.408Z,68.10
2019-02-26T16:36:40.106Z,68.00
2019-02-26T16:39:06.537Z,68.50
2019-02-26T16:41:35.633Z,68.70
2019-02-26T16:44:02.221Z,68.60
2019-02-26T16:46:28.854Z,68.90
2019-02-26T16:48:55.533Z,68.90
2019-02-26T16:51:22.414Z,69.10
2019-02-26T16:53:48.741Z,69.40
2019-02-26T16:56:15.140Z,69.90
2019-02-26T16:58:41.452Z,69.80
2019-02-26T17:01:13.050Z,70.00
2019-02-26T17:03:39.394Z,70.10
2019-02-26T17:06:05.680Z,69.90
2019-02-26T17:08:32.082Z,70.00
2019-02-26T17:10:58.406Z,70.00
2019-02-26T17:13:25.021Z,70.10
2019-02-26T17:15:51.540Z,70.40
2019-02-26T17:18:17.840Z,73.80
2019-02-26T17:20:44.134Z,72.50
2019-02-26T17:23:13.608Z,72.10
2019-02-26T17:25:38.853Z,72.10
2019-02-26T17:28:05.502Z,72.10
2019-02-26T17:30:32.215Z,72.10
2019-02-26T17:32:58.525Z,72.10
2019-02-26T17:35:28.697Z,72.50
2019-02-26T17:37:53.652Z,72.20
2019-02-26T17:40:21.236Z,74.20
2019-02-26T17:42:48.908Z,72.20
2019-02-26T17:45:19.388Z,72.10
2019-02-26T17:47:45.790Z,72.10
2019-02-26T17:51:23.402Z,72.50
2019-02-26T17:55:18.246Z,72.70
2019-02-26T17:57:44.715Z,72.90
2019-02-26T18:00:16.941Z,73.10
2019-02-26T18:02:43.309Z,73.40
2019-02-26T18:05:10.719Z,73.60
2019-02-26T18:08:58.645Z,71.90
2019-02-26T18:11:25.054Z,72.40
2019-02-26T18:13:51.646Z,72.90
2019-02-26T18:16:17.964Z,73.80
2019-02-26T18:18:44.285Z,73.50
2019-02-26T18:21:10.795Z,73.30
2019-02-26T18:23:38.249Z,73.40
2019-02-26T18:26:04.933Z,73.60
2019-02-26T18:28:31.473Z,74.30
2019-02-26T18:30:58.064Z,74.30
2019-02-26T18:33:25.393Z,74.50
2019-02-26T18:35:52.176Z,74.60
2019-02-26T18:38:18.596Z,74.70
2019-02-26T18:40:45.275Z,75.30
2019-02-26T18:43:14.314Z,76.00
2019-02-26T18:45:40.422Z,75.90
2019-02-26T18:48:07.292Z,76.20
2019-02-26T18:50:33.832Z,76.20
2019-02-26T18:53:00.484Z,75.70
2019-02-26T18:55:28.789Z,75.70
2019-02-26T18:57:55.764Z,76.10
2019-02-26T19:00:30.189Z,76.20
2019-02-26T19:02:57.400Z,75.90
2019-02-26T19:05:23.784Z,75.90
2019-02-26T19:07:50.767Z,75.30
2019-02-26T19:10:20.767Z,76.10
2019-02-26T19:12:46.745Z,75.70
2019-02-26T19:15:16.295Z,75.80
2019-02-26T19:17:45.226Z,76.20
2019-02-26T19:20:20.213Z,75.30
2019-02-26T19:22:46.970Z,75.30
2019-02-26T19:25:13.628Z,75.10
2019-02-26T19:27:40.162Z,75.30
2019-02-26T19:30:10.094Z,75.50
2019-02-26T19:32:37.122Z,75.50
2019-02-26T19:35:12.297Z,75.40
2019-02-26T19:37:34.596Z,75.80
2019-02-26T19:40:05.706Z,75.60
2019-02-26T19:42:29.954Z,75.80
2019-02-26T19:44:56.488Z,75.80
2019-02-26T19:47:23.404Z,75.60
2019-02-26T19:49:50.305Z,75.70
2019-02-26T19:52:16.932Z,75.80
2019-02-26T19:54:45.294Z,75.50
2019-02-26T19:57:12.889Z,75.70
2019-02-26T19:59:39.381Z,75.30
2019-02-26T20:02:06.055Z,75.50
2019-02-26T20:04:32.681Z,75.20
2019-02-26T20:06:59.668Z,74.90
2019-02-26T20:09:26.307Z,75.60
2019-02-26T20:11:53.575Z,75.30
2019-02-26T20:14:21.712Z,75.50
2019-02-26T20:16:48.244Z,75.00
2019-02-26T20:19:14.869Z,75.50
2019-02-26T20:21:41.198Z,75.40
2019-02-26T20:24:07.829Z,75.10
2019-02-26T20:26:34.485Z,75.40
2019-02-26T20:29:01.269Z,75.10
2019-02-26T20:31:28.941Z,75.10
2019-02-26T20:33:56.389Z,75.30
2019-02-26T20:36:24.158Z,75.50
2019-02-26T20:38:50.578Z,75.10
2019-02-26T20:41:16.995Z,75.10
2019-02-26T20:43:43.509Z,75.20
2019-02-26T20:46:10.074Z,75.10
2019-02-26T20:48:37.266Z,75.30
2019-02-26T20:51:04.154Z,75.10
2019-02-26T20:55:20.902Z,75.20
2019-02-26T20:57:47.343Z,74.70
2019-02-26T21:00:15.546Z,74.40
2019-02-26T21:02:42.005Z,74.50
2019-02-26T21:05:09.803Z,74.80
2019-02-26T21:07:36.115Z,74.70
2019-02-26T21:10:05.330Z,75.00
2019-02-26T21:12:31.813Z,75.10
2019-02-26T21:14:58.123Z,75.10
2019-02-26T21:17:25.747Z,74.90
2019-02-26T21:19:52.952Z,74.50
2019-02-26T21:22:19.795Z,74.50
2019-02-26T21:24:47.565Z,74.50
2019-02-26T21:27:14.073Z,74.70
2019-02-26T21:29:41.611Z,74.40
2019-02-26T21:32:08.190Z,74.30
2019-02-26T21:34:34.602Z,74.30
2019-02-26T21:37:00.999Z,74.60
2019-02-26T21:39:27.436Z,73.90
2019-02-26T21:41:55.614Z,74.30
2019-02-26T21:44:21.831Z,74.00
2019-02-26T21:46:48.606Z,74.10
2019-02-26T21:49:14.923Z,74.00
2019-02-26T21:51:41.369Z,73.90
2019-02-26T21:54:07.781Z,74.00
2019-02-26T21:56:34.178Z,73.80
2019-02-26T21:59:00.504Z,73.90
2019-02-26T22:01:26.893Z,74.10
2019-02-26T22:03:53.203Z,74.00
2019-02-26T22:06:19.502Z,73.80
2019-02-26T22:08:45.790Z,73.60
2019-02-26T22:11:12.090Z,73.60
2019-02-26T22:13:38.385Z,73.50
2019-02-26T22:16:04.697Z,73.60
2019-02-26T22:18:34.001Z,73.70
2019-02-26T22:20:59.088Z,73.60
2019-02-26T22:23:25.513Z,74.00
2019-02-26T22:25:52.542Z,73.40
2019-02-26T22:28:19.643Z,73.50
2019-02-26T22:30:46.042Z,73.60
2019-02-26T22:33:12.438Z,73.50
2019-02-26T22:35:38.754Z,73.30
2019-02-26T22:38:05.054Z,73.50
2019-02-26T22:40:31.484Z,73.30
2019-02-26T22:42:57.882Z,73.70
2019-02-26T22:45:27.719Z,73.50
2019-02-26T22:47:52.389Z,73.30
2019-02-26T22:50:18.683Z,73.40
2019-02-26T22:52:45.022Z,73.50
2019-02-26T22:55:16.499Z,73.40
2019-02-26T22:57:42.147Z,73.30
2019-02-26T23:00:34.369Z,73.40
2019-02-26T23:03:01.266Z,73.10
2019-02-26T23:05:27.991Z,73.20
2019-02-26T23:07:54.445Z,73.40
2019-02-26T23:10:24.511Z,73.60
2019-02-26T23:12:48.862Z,73.10
2019-02-26T23:15:15.366Z,73.30
2019-02-26T23:17:41.758Z,73.50
2019-02-26T23:20:09.935Z,73.60
2019-02-26T23:22:38.506Z,73.70
2019-02-26T23:25:07.521Z,73.90
2019-02-26T23:27:34.403Z,73.90
2019-02-26T23:30:00.818Z,73.70
2019-02-26T23:32:27.114Z,73.90
2019-02-26T23:35:09.167Z,73.90
2019-02-26T23:37:35.465Z,74.00
2019-02-26T23:40:03.253Z,74.50
2019-02-26T23:42:29.768Z,73.90
2019-02-26T23:44:56.171Z,74.30
2019-02-26T23:47:22.603Z,74.00
2019-02-26T23:49:48.894Z,74.40
2019-02-26T23:52:15.330Z,74.00
2019-02-26T23:54:41.637Z,74.20
2019-02-26T23:57:08.144Z,74.30
2019-02-26T23:59:34.863Z,74.50
